Time;durP1;ratioP1;P1;durP2;ratioP2;P2;SDS_P1;SDS_P2;PMS_P1;PMS_P2;Temp;Humidity;BMP_temperature;BMP_pressure;BME280_temperature;BME280_humidity;BME280_pressure;Samples;Min_cycle;Max_cycle;Signal;HPM_P1;HPM_P2
2022/04/25 00:00:35;;;;;;;10.75;3.40;;;11.80;99.90;;;;;;5033698;28;20206;-84
2022/04/25 00:03:01;;;;;;;7.05;3.40;;;11.80;99.90;;;;;;5033609;28;20262;-83
2022/04/25 00:05:27;;;;;;;9.93;3.28;;;11.70;99.90;;;;;;5033603;28;20308;-84
2022/04/25 00:07:53;;;;;;;8.05;4.18;;;11.70;99.90;;;;;;5033786;28;20242;-79
2022/04/25 00:10:19;;;;;;;5.18;3.15;;;11.60;99.90;;;;;;5033379;28;20572;-78
2022/04/25 00:12:44;;;;;;;13.50;3.90;;;11.60;99.90;;;;;;5049166;28;20755;-84
2022/04/25 00:15:11;;;;;;;7.00;4.00;;;11.60;99.90;;;;;;5033446;28;20314;-86
2022/04/25 00:17:36;;;;;;;4.90;3.63;;;11.60;99.90;;;;;;5033521;28;20639;-83
2022/04/25 00:20:05;;;;;;;6.72;3.53;;;11.70;99.90;;;;;;5033300;28;20175;-80
2022/04/25 00:22:30;;;;;;;7.13;4.10;;;11.40;99.90;;;;;;5033405;28;20200;-81
2022/04/25 00:24:56;;;;;;;6.80;3.78;;;11.40;99.90;;;;;;5033409;28;20263;-78
2022/04/25 00:27:22;;;;;;;7.63;3.42;;;11.50;99.90;;;;;;5033133;28;20292;-83
2022/04/25 00:29:48;;;;;;;8.65;4.90;;;11.50;99.90;;;;;;5032871;28;20162;-83
2022/04/25 00:32:13;;;;;;;5.63;3.60;;;11.50;99.90;;;;;;5032305;28;20608;-85
2022/04/25 00:34:39;;;;;;;6.57;4.10;;;11.60;99.90;;;;;;5033170;28;20199;-79
2022/04/25 00:37:05;;;;;;;4.47;3.63;;;11.40;99.90;;;;;;5048973;28;20233;-78
2022/04/25 00:39:30;;;;;;;10.35;3.70;;;11.30;99.90;;;;;;5032897;28;20160;-85
2022/04/25 00:41:57;;;;;;;8.82;3.85;;;11.20;99.90;;;;;;5032923;28;20207;-81
2022/04/25 00:44:23;;;;;;;4.38;3.65;;;11.10;99.90;;;;;;5033363;28;20233;-81
2022/04/25 00:46:51;;;;;;;4.68;3.72;;;11.10;99.90;;;;;;5048440;28;20267;-84
2022/04/25 00:49:17;;;;;;;3.78;3.33;;;10.90;99.90;;;;;;5048490;28;20175;-78
2022/04/25 00:51:43;;;;;;;4.68;4.25;;;10.90;99.90;;;;;;5032972;28;20168;-81
2022/04/25 00:54:09;;;;;;;4.07;3.60;;;10.80;99.90;;;;;;5032916;28;20195;-80
2022/04/25 00:56:35;;;;;;;4.85;3.85;;;10.70;99.90;;;;;;5048505;28;20253;-82
2022/04/25 00:59:01;;;;;;;5.72;3.97;;;10.80;99.90;;;;;;5032819;28;20195;-78
2022/04/25 01:01:28;;;;;;;6.68;3.90;;;10.80;99.90;;;;;;5032672;28;20203;-79
2022/04/25 01:03:54;;;;;;;5.00;4.50;;;10.70;99.90;;;;;;5032420;28;20183;-76
2022/04/25 01:06:20;;;;;;;11.75;4.32;;;10.70;99.90;;;;;;5032258;28;20247;-81
2022/04/25 01:08:46;;;;;;;15.07;4.93;;;10.80;99.90;;;;;;5036150;28;20283;-81
2022/04/25 01:11:13;;;;;;;7.28;4.18;;;10.80;99.90;;;;;;5036604;28;20167;-77
2022/04/25 01:13:39;;;;;;;10.63;5.15;;;10.70;99.90;;;;;;5036382;28;20248;-78
2022/04/25 01:16:05;;;;;;;5.72;4.38;;;10.60;99.90;;;;;;5051912;28;20180;-80
2022/04/25 01:18:30;;;;;;;7.68;4.38;;;10.50;99.90;;;;;;5036962;28;20163;-78
2022/04/25 01:20:57;;;;;;;8.18;4.70;;;10.50;99.90;;;;;;5036363;28;20199;-79
2022/04/25 01:28:53;;;;;;;6.45;4.57;;;10.40;99.90;;;;;;5036305;28;20263;-81
2022/04/25 01:31:19;;;;;;;7.95;4.43;;;10.60;99.90;;;;;;5036669;28;20222;-77
2022/04/25 01:33:45;;;;;;;9.20;4.80;;;10.50;99.90;;;;;;5036475;28;20175;-81
2022/04/25 01:36:11;;;;;;;11.85;5.35;;;10.50;99.90;;;;;;5036153;28;20187;-80
2022/04/25 01:38:37;;;;;;;14.00;4.60;;;10.40;99.90;;;;;;5036254;28;20504;-80
2022/04/25 01:41:02;;;;;;;6.03;4.22;;;10.50;99.90;;;;;;5036108;28;20206;-78
2022/04/25 01:43:28;;;;;;;19.55;5.30;;;10.40;99.90;;;;;;5036576;28;20168;-83
2022/04/25 01:45:54;;;;;;;8.40;5.75;;;10.40;99.90;;;;;;5036254;28;20234;-78
2022/04/25 01:48:21;;;;;;;6.78;4.85;;;10.50;99.90;;;;;;5035974;28;20206;-77
2022/04/25 01:50:49;;;;;;;5.78;5.18;;;10.70;99.90;;;;;;5036289;28;20172;-80
2022/04/25 01:53:15;;;;;;;9.30;4.95;;;10.70;99.90;;;;;;5036147;28;20164;-79
2022/04/25 01:55:41;;;;;;;16.77;5.32;;;10.40;99.90;;;;;;5035958;28;20187;-76
2022/04/25 01:58:06;;;;;;;12.13;5.63;;;10.40;99.90;;;;;;5035923;28;20652;-76
2022/04/25 02:00:33;;;;;;;5.70;4.35;;;10.30;99.90;;;;;;5035790;28;20330;-80
2022/04/25 02:02:58;;;;;;;7.47;5.70;;;10.40;99.90;;;;;;5035998;28;20536;-80
2022/04/25 02:05:24;;;;;;;9.60;4.68;;;10.50;99.90;;;;;;5036114;28;20322;-77
2022/04/25 02:07:50;;;;;;;6.85;5.18;;;10.60;99.90;;;;;;5035692;28;20172;-77
2022/04/25 02:10:15;;;;;;;9.43;4.93;;;10.50;99.90;;;;;;5035824;28;20174;-79
2022/04/25 02:12:43;;;;;;;9.27;5.10;;;10.60;99.90;;;;;;5035688;28;20170;-81
2022/04/25 02:15:12;;;;;;;11.35;5.20;;;10.30;99.90;;;;;;5033864;28;20219;-78
2022/04/25 02:17:42;;;;;;;20.85;5.57;;;10.20;99.90;;;;;;5035808;28;20259;-83
2022/04/25 02:20:09;;;;;;;14.18;5.32;;;10.10;99.90;;;;;;5035782;28;20303;-79
2022/04/25 02:22:37;;;;;;;11.80;5.60;;;10.20;99.90;;;;;;5035491;28;20203;-83
2022/04/25 02:25:04;;;;;;;8.73;5.90;;;10.30;99.90;;;;;;5035399;28;20192;-79
2022/04/25 02:27:29;;;;;;;10.27;5.47;;;10.50;99.90;;;;;;5035417;28;20623;-83
2022/04/25 02:29:58;;;;;;;8.95;5.15;;;10.50;99.90;;;;;;5035662;28;20247;-81
2022/04/25 02:32:28;;;;;;;14.52;5.93;;;10.40;99.90;;;;;;5035239;28;20183;-78
2022/04/25 02:34:54;;;;;;;11.35;6.07;;;10.40;99.90;;;;;;5034748;28;20200;-78
2022/04/25 02:37:23;;;;;;;6.78;6.00;;;10.50;99.90;;;;;;5034980;28;20583;-80
2022/04/25 02:39:49;;;;;;;9.65;6.35;;;10.30;99.90;;;;;;5034852;28;20167;-77
2022/04/25 02:42:16;;;;;;;9.55;6.15;;;10.20;99.90;;;;;;5034987;28;20227;-86
2022/04/25 02:44:41;;;;;;;18.48;6.43;;;10.10;99.90;;;;;;5034997;28;20184;-85
2022/04/25 02:47:08;;;;;;;8.48;6.03;;;10.20;99.90;;;;;;5034941;28;20168;-79
2022/04/25 02:49:34;;;;;;;13.15;6.57;;;10.20;99.90;;;;;;5050563;28;20263;-81
2022/04/25 02:52:00;;;;;;;20.88;7.07;;;10.30;99.90;;;;;;5035109;28;20247;-84
2022/04/25 02:54:25;;;;;;;8.82;6.68;;;10.30;99.90;;;;;;5033696;28;20198;-81
2022/04/25 02:56:51;;;;;;;6.53;5.93;;;10.40;99.90;;;;;;5034901;28;20270;-80
2022/04/25 02:59:16;;;;;;;8.38;6.85;;;10.20;99.90;;;;;;5034617;28;20613;-77
2022/04/25 03:01:42;;;;;;;11.45;6.85;;;10.00;99.90;;;;;;5034195;28;20204;-77
2022/04/25 03:04:09;;;;;;;10.63;7.15;;;9.90;99.90;;;;;;5033974;28;20199;-79
2022/04/25 03:06:35;;;;;;;12.63;7.55;;;9.80;99.90;;;;;;5033292;28;20617;-78
2022/04/25 03:09:01;;;;;;;12.23;7.25;;;9.60;99.90;;;;;;5034325;28;20164;-78
2022/04/25 03:11:27;;;;;;;9.77;7.70;;;9.60;99.90;;;;;;5034090;28;20242;-79
2022/04/25 03:13:55;;;;;;;13.98;7.47;;;9.70;99.90;;;;;;5033792;28;20188;-80
2022/04/25 03:16:21;;;;;;;9.88;7.35;;;9.80;99.90;;;;;;5033338;28;20168;-84
2022/04/25 03:18:48;;;;;;;13.02;8.73;;;9.80;99.90;;;;;;5049859;28;20178;-79
2022/04/25 03:21:13;;;;;;;9.80;7.45;;;9.80;99.90;;;;;;5034328;28;20203;-80
2022/04/25 03:23:39;;;;;;;16.65;8.40;;;9.90;99.90;;;;;;5033878;28;20180;-80
2022/04/25 03:26:05;;;;;;;13.75;7.63;;;9.80;99.90;;;;;;5049273;28;20620;-79
2022/04/25 03:28:31;;;;;;;14.80;8.48;;;9.90;99.90;;;;;;5032705;28;20172;-81
2022/04/25 03:30:57;;;;;;;20.55;9.55;;;10.00;99.90;;;;;;5033215;28;20509;-77
2022/04/25 03:33:22;;;;;;;19.65;8.57;;;10.20;99.90;;;;;;5033686;28;20506;-77
2022/04/25 03:35:48;;;;;;;14.57;9.05;;;10.20;99.90;;;;;;5032373;28;20218;-80
2022/04/25 03:38:16;;;;;;;15.73;9.18;;;10.30;99.90;;;;;;5033911;28;20731;-81
2022/04/25 03:40:41;;;;;;;12.45;9.18;;;10.10;99.90;;;;;;5033981;28;20195;-78
2022/04/25 03:43:07;;;;;;;13.80;9.15;;;10.00;99.90;;;;;;5034331;28;20176;-82
2022/04/25 03:45:34;;;;;;;10.82;9.77;;;10.00;99.90;;;;;;5033837;28;20203;-78
2022/04/25 03:47:59;;;;;;;28.73;9.70;;;9.90;99.90;;;;;;5033898;28;20247;-79
2022/04/25 03:50:25;;;;;;;14.23;9.95;;;10.00;99.90;;;;;;5033909;28;20247;-84
2022/04/25 03:52:51;;;;;;;17.55;10.05;;;9.90;99.90;;;;;;5033889;28;20184;-79
2022/04/25 03:58:04;;;;;;;15.15;10.13;;;9.80;99.90;;;;;;5033034;28;20197;-77
2022/04/25 04:00:30;;;;;;;12.77;9.13;;;9.70;99.90;;;;;;5032523;28;20168;-77
2022/04/25 04:02:58;;;;;;;19.48;10.88;;;9.60;99.90;;;;;;5033098;28;20168;-77
2022/04/25 04:05:24;;;;;;;16.50;10.02;;;9.40;99.90;;;;;;5033019;28;20212;-77
2022/04/25 04:07:50;;;;;;;21.67;11.02;;;9.40;99.90;;;;;;5048601;28;20180;-78
2022/04/25 04:10:17;;;;;;;18.25;11.73;;;9.30;99.90;;;;;;5033944;28;20160;-79
2022/04/25 04:12:46;;;;;;;12.52;10.30;;;9.30;99.90;;;;;;5033616;28;20164;-85
2022/04/25 04:15:13;;;;;;;15.88;10.98;;;9.10;99.90;;;;;;5033250;28;20179;-80
2022/04/25 04:17:39;;;;;;;23.27;11.38;;;9.10;99.90;;;;;;5033258;28;20654;-81
2022/04/25 04:20:06;;;;;;;13.55;11.45;;;9.30;99.90;;;;;;5033324;28;20172;-82
2022/04/25 04:22:32;;;;;;;14.32;10.38;;;9.20;99.90;;;;;;5048744;28;20614;-80
2022/04/25 04:25:10;;;;;;;15.50;11.15;;;9.20;99.90;;;;;;5048717;28;20195;-80
2022/04/25 04:27:36;;;;;;;18.05;11.93;;;9.20;99.90;;;;;;5032869;28;20207;-81
2022/04/25 04:30:06;;;;;;;17.05;12.15;;;9.20;99.90;;;;;;5032397;28;20222;-78
2022/04/25 04:32:32;;;;;;;17.70;12.02;;;9.30;99.90;;;;;;5032559;28;20206;-77
2022/04/25 04:34:58;;;;;;;20.45;11.90;;;9.20;99.90;;;;;;5047859;28;20231;-77
2022/04/25 04:37:25;;;;;;;17.00;10.98;;;9.40;99.90;;;;;;5032331;28;20250;-79
2022/04/25 04:40:28;;;;;;;16.45;11.93;;;9.30;99.90;;;;;;5032371;28;20206;-82
2022/04/25 04:42:37;;;;;;;21.20;13.02;;;9.30;99.90;;;;;;5032256;28;20207;-81
2022/04/25 04:45:04;;;;;;;21.88;12.23;;;9.30;99.90;;;;;;5032936;28;20195;-79
2022/04/25 04:47:36;;;;;;;15.70;12.70;;;9.40;99.90;;;;;;5032952;28;20168;-81
2022/04/25 04:50:06;;;;;;;22.58;12.60;;;9.50;99.90;;;;;;5032978;28;20170;-80
2022/04/25 04:52:32;;;;;;;23.17;12.20;;;9.60;99.90;;;;;;5032970;28;20168;-80
2022/04/25 04:54:58;;;;;;;22.52;13.20;;;9.60;99.90;;;;;;5048203;28;20206;-84
2022/04/25 04:57:24;;;;;;;20.75;14.00;;;9.50;99.90;;;;;;5032874;28;20569;-81
2022/04/25 04:59:49;;;;;;;22.77;13.98;;;9.60;99.90;;;;;;5032659;28;20247;-77
2022/04/25 05:02:16;;;;;;;20.63;12.98;;;9.70;99.90;;;;;;5032218;28;20210;-78
2022/04/25 05:04:45;;;;;;;25.77;13.65;;;9.70;99.90;;;;;;5032340;28;20180;-82
2022/04/25 05:07:11;;;;;;;18.60;12.77;;;9.60;99.90;;;;;;5032844;28;20172;-77
2022/04/25 05:09:37;;;;;;;16.85;12.32;;;9.70;99.90;;;;;;5032341;28;20167;-80
2022/04/25 05:12:03;;;;;;;21.08;14.23;;;9.90;99.90;;;;;;5032081;28;20620;-80
2022/04/25 05:14:29;;;;;;;28.63;15.63;;;9.90;99.90;;;;;;5031785;28;20216;-77
2022/04/25 05:16:54;;;;;;;13.82;11.48;;;9.80;99.90;;;;;;5032074;28;20615;-76
2022/04/25 05:19:20;;;;;;;21.52;13.30;;;9.70;99.90;;;;;;5032029;28;20547;-79
2022/04/25 05:21:46;;;;;;;16.10;13.30;;;9.80;99.90;;;;;;5047827;28;20668;-82
2022/04/25 05:24:12;;;;;;;20.83;12.75;;;9.90;99.90;;;;;;5031682;28;20184;-78
2022/04/25 05:26:38;;;;;;;23.75;14.23;;;9.90;99.90;;;;;;5031851;28;20617;-80
2022/04/25 05:29:03;;;;;;;27.25;12.85;;;10.00;99.90;;;;;;5031822;28;20168;-83
2022/04/25 05:31:29;;;;;;;16.00;12.43;;;10.20;99.90;;;;;;5047034;28;20576;-80
2022/04/25 05:33:54;;;;;;;14.90;12.30;;;10.50;99.90;;;;;;5032144;28;20188;-79
2022/04/25 05:36:20;;;;;;;17.70;12.90;;;10.50;99.90;;;;;;5032027;28;20191;-86
2022/04/25 05:38:46;;;;;;;18.70;13.10;;;10.70;99.90;;;;;;5031547;28;20573;-79
2022/04/25 05:41:11;;;;;;;20.08;11.32;;;10.90;99.90;;;;;;5030850;28;20566;-76
2022/04/25 05:43:39;;;;;;;17.17;11.57;;;10.70;99.90;;;;;;5030784;28;20172;-76
2022/04/25 05:46:05;;;;;;;17.92;12.68;;;10.20;99.90;;;;;;5031746;28;20287;-78
2022/04/25 05:54:00;;;;;;;14.75;11.45;;;10.30;99.90;;;;;;5033410;28;20207;-77
2022/04/25 05:56:26;;;;;;;19.60;12.90;;;10.30;99.90;;;;;;5050249;28;20175;-77
2022/04/25 05:58:52;;;;;;;23.45;12.70;;;10.20;99.90;;;;;;5035032;28;20210;-77
2022/04/25 06:01:17;;;;;;;19.50;11.55;;;10.60;99.90;;;;;;5034949;28;20257;-77
2022/04/25 06:03:43;;;;;;;15.27;10.65;;;10.60;99.90;;;;;;5035080;28;20164;-77
2022/04/25 06:06:09;;;;;;;18.30;11.95;;;10.30;99.90;;;;;;5034989;28;20198;-77
2022/04/25 06:08:36;;;;;;;18.23;11.63;;;10.40;99.90;;;;;;5034883;28;20910;-77
2022/04/25 06:11:02;;;;;;;26.52;11.85;;;10.60;99.90;;;;;;5034827;28;20187;-76
2022/04/25 06:13:28;;;;;;;18.55;11.18;;;10.80;99.90;;;;;;5034506;28;20172;-77
2022/04/25 06:15:53;;;;;;;19.10;11.57;;;10.80;99.90;;;;;;5049910;28;20211;-77
2022/04/25 06:18:19;;;;;;;33.55;12.52;;;10.80;99.90;;;;;;5035025;28;20652;-77
2022/04/25 06:20:45;;;;;;;18.60;10.75;;;10.70;99.90;;;;;;5034277;28;20640;-83
2022/04/25 06:23:10;;;;;;;22.88;11.30;;;10.70;99.90;;;;;;5034397;28;20196;-77
2022/04/25 06:25:37;;;;;;;24.67;10.80;;;10.90;99.90;;;;;;5034840;28;20192;-80
2022/04/25 06:28:04;;;;;;;18.40;11.15;;;10.70;99.90;;;;;;5034737;28;20164;-77
2022/04/25 06:30:30;;;;;;;13.55;11.55;;;10.80;99.90;;;;;;5033592;28;20175;-77
2022/04/25 06:32:57;;;;;;;15.73;11.23;;;10.90;99.90;;;;;;5033895;28;20180;-77
2022/04/25 06:35:23;;;;;;;16.08;10.23;;;11.30;99.90;;;;;;5034452;28;20215;-76
2022/04/25 06:37:49;;;;;;;17.90;10.57;;;11.00;99.90;;;;;;5034439;28;20175;-77
2022/04/25 06:40:16;;;;;;;19.27;11.35;;;10.90;99.90;;;;;;5034625;28;20176;-80
2022/04/25 06:42:42;;;;;;;18.92;11.05;;;11.20;99.90;;;;;;5032520;28;20210;-79
2022/04/25 06:45:08;;;;;;;17.77;11.00;;;11.40;99.90;;;;;;5030403;28;20192;-79
2022/04/25 06:47:34;;;;;;;17.83;11.07;;;11.50;99.90;;;;;;5030038;28;20203;-82
2022/04/25 06:50:00;;;;;;;24.65;11.00;;;11.60;99.90;;;;;;5013603;28;20203;-78
2022/04/25 06:52:26;;;;;;;17.13;10.70;;;11.80;99.90;;;;;;5014442;28;20168;-81
2022/04/25 06:54:51;;;;;;;21.83;11.27;;;11.70;99.90;;;;;;5013892;28;20551;-79
2022/04/25 06:57:17;;;;;;;13.90;10.20;;;11.90;99.90;;;;;;5015012;28;20168;-84
2022/04/25 06:59:44;;;;;;;38.47;10.43;;;12.20;99.90;;;;;;5014087;28;20259;-86
2022/04/25 07:02:10;;;;;;;14.68;10.00;;;12.40;99.90;;;;;;5014572;28;20223;-82
2022/04/25 07:04:36;;;;;;;14.85;10.18;;;12.50;99.90;;;;;;5013943;28;20193;-76
2022/04/25 07:07:03;;;;;;;18.35;9.93;;;12.90;99.90;;;;;;5013158;28;20183;-77
2022/04/25 07:09:28;;;;;;;17.85;9.32;;;13.10;99.90;;;;;;5014457;28;20171;-82
2022/04/25 07:11:54;;;;;;;14.27;9.20;;;13.20;99.90;;;;;;5014253;28;20169;-77
2022/04/25 07:14:24;;;;;;;16.00;9.27;;;13.30;99.90;;;;;;5013277;28;20279;-77
2022/04/25 07:16:54;;;;;;;14.52;9.85;;;13.20;99.90;;;;;;5013566;28;20176;-80
2022/04/25 07:19:20;;;;;;;16.17;10.32;;;13.10;99.90;;;;;;5013652;28;20199;-85
2022/04/25 07:32:25;;;;;;;14.63;9.32;;;12.80;99.90;;;;;;5014726;28;20258;-79
2022/04/25 07:34:51;;;;;;;15.63;11.05;;;12.60;99.90;;;;;;5031260;28;20281;-82
2022/04/25 07:37:18;;;;;;;12.32;9.90;;;12.50;99.90;;;;;;5032934;28;20172;-76
2022/04/25 07:39:45;;;;;;;12.55;10.00;;;12.30;99.90;;;;;;5032860;28;20170;-77
2022/04/25 07:42:12;;;;;;;12.65;9.65;;;12.40;99.90;;;;;;5023010;28;20215;-83
2022/04/25 07:44:38;;;;;;;15.55;10.40;;;12.30;99.90;;;;;;5012553;28;20630;-77
2022/04/25 07:47:05;;;;;;;18.33;10.55;;;12.30;99.90;;;;;;5012876;28;20172;-79
2022/04/25 07:49:33;;;;;;;24.00;10.00;;;12.40;99.90;;;;;;5013097;28;20176;-76
2022/04/25 07:51:59;;;;;;;12.20;10.20;;;12.30;99.90;;;;;;5011900;28;20168;-78
2022/04/25 07:54:25;;;;;;;18.00;11.77;;;12.50;99.90;;;;;;5023254;28;20192;-77
2022/04/25 07:56:51;;;;;;;14.02;10.27;;;12.60;99.90;;;;;;5032115;28;20221;-81
2022/04/25 07:59:17;;;;;;;19.33;11.00;;;12.60;99.90;;;;;;5032123;28;20172;-78
2022/04/25 08:01:43;;;;;;;18.73;10.13;;;12.80;99.90;;;;;;5031877;28;20666;-83
2022/04/25 08:04:09;;;;;;;11.32;10.02;;;12.90;99.90;;;;;;5046060;28;20222;-82
2022/04/25 08:06:35;;;;;;;21.58;10.75;;;13.00;99.90;;;;;;5047626;28;20168;-81
2022/04/25 08:09:03;;;;;;;16.13;10.00;;;13.10;99.90;;;;;;5031017;28;20183;-78
2022/04/25 08:11:29;;;;;;;23.70;10.90;;;13.10;99.90;;;;;;5030638;28;20580;-79
2022/04/25 08:19:24;;;;;;;15.65;8.80;;;13.10;99.90;;;;;;5032392;28;20174;-78
2022/04/25 08:21:49;;;;;;;22.88;10.30;;;13.10;99.90;;;;;;5031826;28;20208;-81
2022/04/25 08:24:17;;;;;;;14.93;9.63;;;13.30;99.90;;;;;;5031897;23;20650;-78
2022/04/25 08:26:42;;;;;;;15.63;9.85;;;13.40;99.90;;;;;;5015619;28;20174;-79
2022/04/25 08:29:08;;;;;;;19.70;9.35;;;13.80;99.90;;;;;;4973637;28;20166;-79
2022/04/25 08:31:36;;;;;;;17.30;9.52;;;14.10;99.90;;;;;;4972711;28;20253;-79
2022/04/25 08:34:03;;;;;;;20.58;10.52;;;14.00;99.90;;;;;;4984166;28;20197;-80
2022/04/25 08:36:30;;;;;;;15.38;10.80;;;14.00;99.90;;;;;;4991610;28;20185;-77
2022/04/25 08:38:56;;;;;;;18.15;9.98;;;13.90;99.90;;;;;;4992827;28;20172;-81
2022/04/25 08:41:30;;;;;;;11.63;9.75;;;13.60;99.90;;;;;;4992302;28;20274;-80
2022/04/25 08:43:58;;;;;;;13.13;10.90;;;13.40;99.90;;;;;;4992847;28;20197;-78
2022/04/25 08:46:24;;;;;;;12.38;10.07;;;13.50;99.90;;;;;;4993407;28;20169;-82
2022/04/25 08:48:51;;;;;;;12.52;9.90;;;13.80;99.90;;;;;;4992780;28;20576;-81
2022/04/25 08:51:17;;;;;;;21.90;10.82;;;13.70;99.90;;;;;;4992560;28;20794;-80
2022/04/25 08:53:45;;;;;;;14.90;10.32;;;13.90;99.90;;;;;;4992864;28;20189;-78
2022/04/25 08:56:12;;;;;;;13.95;11.20;;;13.80;99.90;;;;;;4992761;28;20169;-80
2022/04/25 08:58:41;;;;;;;10.85;9.75;;;13.90;99.90;;;;;;4992524;28;20173;-78
2022/04/25 09:01:12;;;;;;;16.33;10.13;;;14.00;99.90;;;;;;4988674;28;20202;-78
2022/04/25 09:03:38;;;;;;;14.85;9.13;;;14.30;99.90;;;;;;4980889;28;20205;-79
2022/04/25 09:06:06;;;;;;;11.10;9.65;;;14.30;99.90;;;;;;4993096;28;20223;-84
2022/04/25 09:08:32;;;;;;;17.13;10.00;;;14.10;99.90;;;;;;4993314;28;20634;-82
2022/04/25 09:13:44;;;;;;;10.23;8.43;;;14.70;99.90;;;;;;4984800;28;20185;-84
2022/04/25 09:16:12;;;;;;;11.55;8.55;;;14.90;99.90;;;;;;4973675;28;20697;-85
2022/04/25 09:18:38;;;;;;;19.35;9.13;;;15.10;99.90;;;;;;4974124;28;20177;-84
2022/04/25 09:21:05;;;;;;;18.17;9.32;;;15.20;99.90;;;;;;4973655;28;20915;-85
2022/04/25 09:23:31;;;;;;;11.07;9.40;;;15.20;99.90;;;;;;4996769;28;20692;-78
2022/04/25 09:26:10;;;;;;;13.32;9.18;;;15.10;99.90;;;;;;4992169;28;20181;-81
2022/04/25 09:28:50;;;;;;;17.80;10.07;;;14.70;99.90;;;;;;4989782;28;20615;-84
2022/04/25 09:31:18;;;;;;;14.55;9.48;;;14.80;99.90;;;;;;5013133;28;20310;-81
2022/04/25 09:33:44;;;;;;;14.02;8.98;;;15.00;99.90;;;;;;4995662;28;20174;-82
2022/04/25 09:36:10;;;;;;;11.32;8.45;;;14.70;99.90;;;;;;4995739;28;20165;-81
2022/04/25 09:38:38;;;;;;;15.32;9.13;;;14.90;99.90;;;;;;4996523;28;20237;-83
2022/04/25 09:41:09;;;;;;;18.75;9.55;;;15.40;99.90;;;;;;4998386;28;20609;-82
2022/04/25 09:43:38;;;;;;;12.80;8.30;;;15.70;99.90;;;;;;5016203;28;20231;-82
2022/04/25 09:46:22;;;;;;;9.43;8.32;;;15.90;99.90;;;;;;5030751;28;20169;-81
2022/04/25 09:49:01;;;;;;;11.25;8.88;;;16.40;99.90;;;;;;5006750;28;20188;-78
2022/04/25 09:51:27;;;;;;;14.93;8.52;;;16.90;99.90;;;;;;5015536;28;20651;-81
2022/04/25 09:53:54;;;;;;;21.85;9.93;;;17.00;99.90;;;;;;5015297;28;20188;-79
2022/04/25 09:56:25;;;;;;;12.00;8.77;;;16.90;99.90;;;;;;4997746;28;20608;-79
2022/04/25 09:59:05;;;;;;;21.10;9.18;;;16.70;99.90;;;;;;4995659;28;20169;-80
2022/04/25 10:01:35;;;;;;;22.45;9.30;;;16.30;99.90;;;;;;4995313;28;20217;-80
2022/04/25 10:04:02;;;;;;;11.63;8.63;;;15.80;99.90;;;;;;4996734;28;20193;-82
2022/04/25 10:06:32;;;;;;;13.57;9.75;;;15.30;99.90;;;;;;4996955;28;20165;-81
2022/04/25 10:09:04;;;;;;;11.45;9.00;;;15.30;99.90;;;;;;5028591;28;20165;-81
2022/04/25 10:11:33;;;;;;;12.32;8.80;;;15.30;99.90;;;;;;5020564;28;20157;-81
2022/04/25 10:14:00;;;;;;;19.02;8.75;;;15.30;99.90;;;;;;5019220;28;20245;-79
2022/04/25 10:16:27;;;;;;;14.63;10.43;;;15.10;99.90;;;;;;5014039;28;20177;-81
2022/04/25 10:18:54;;;;;;;14.85;11.13;;;14.70;99.90;;;;;;4999070;28;20626;-80
2022/04/25 10:21:23;;;;;;;22.05;12.20;;;14.10;99.90;;;;;;4998349;28;20649;-81
2022/04/25 10:23:49;;;;;;;16.80;10.00;;;14.00;99.90;;;;;;4995881;28;20185;-79
2022/04/25 10:26:15;;;;;;;17.15;11.55;;;13.90;99.90;;;;;;4995831;28;20166;-82
2022/04/25 10:28:48;;;;;;;16.50;10.38;;;13.90;99.90;;;;;;4995219;28;20173;-79
2022/04/25 10:31:20;;;;;;;17.73;10.73;;;13.90;99.90;;;;;;5010112;28;20169;-80
2022/04/25 10:33:48;;;;;;;15.50;9.85;;;13.80;99.90;;;;;;4995321;28;20647;-81
2022/04/25 10:36:38;;;;;;;11.45;9.35;;;13.70;99.90;;;;;;4995275;28;20161;-80
2022/04/25 10:39:24;;;;;;;13.13;9.18;;;13.70;99.90;;;;;;4995688;28;20197;-81
2022/04/25 10:44:36;;;;;;;15.25;9.73;;;13.60;99.90;;;;;;4995052;28;20216;-81
2022/04/25 10:47:05;;;;;;;15.48;9.43;;;13.60;99.90;;;;;;4988179;28;20174;-80
2022/04/25 10:49:52;;;;;;;12.82;9.30;;;13.60;99.90;;;;;;4975528;28;20182;-81
2022/04/25 10:52:53;;;;;;;16.80;9.10;;;13.70;99.90;;;;;;4975845;28;20181;-85
2022/04/25 10:55:36;;;;;;;12.93;9.93;;;13.80;99.90;;;;;;4975963;28;20181;-78
2022/04/25 10:58:01;;;;;;;19.58;10.60;;;13.90;99.90;;;;;;4974863;28;20197;-78
2022/04/25 11:00:36;;;;;;;16.50;9.65;;;14.10;99.90;;;;;;4974769;28;20162;-81
2022/04/25 11:03:23;;;;;;;12.52;10.43;;;14.10;99.90;;;;;;4984270;28;20689;-78
2022/04/25 11:05:59;;;;;;;12.27;9.05;;;14.10;99.90;;;;;;4975272;28;20182;-82
2022/04/25 11:08:29;;;;;;;13.38;10.25;;;14.30;99.90;;;;;;4973985;28;20288;-79
2022/04/25 11:10:57;;;;;;;12.88;10.50;;;14.10;99.90;;;;;;4975702;28;20233;-80
2022/04/25 11:13:26;;;;;;;12.18;9.55;;;14.10;99.90;;;;;;4975313;28;20859;-80
2022/04/25 11:15:56;;;;;;;10.30;9.40;;;14.40;99.90;;;;;;4974520;28;20186;-80
2022/04/25 11:18:41;;;;;;;15.70;9.63;;;14.70;99.90;;;;;;4975864;28;20181;-80
2022/04/25 11:21:16;;;;;;;16.40;10.40;;;15.00;99.90;;;;;;4975693;28;20260;-81
2022/04/25 11:23:44;;;;;;;12.23;10.02;;;15.20;99.90;;;;;;4975399;28;20198;-82
2022/04/25 11:26:30;;;;;;;18.02;9.20;;;15.30;99.90;;;;;;4975548;28;20259;-80
2022/04/25 11:29:01;;;;;;;10.43;9.35;;;15.50;99.90;;;;;;4975448;28;20232;-78
2022/04/25 11:31:28;;;;;;;10.45;9.35;;;15.70;99.90;;;;;;4975847;28;20174;-79
2022/04/25 11:33:56;;;;;;;9.57;8.57;;;15.90;99.90;;;;;;4975211;28;20198;-78
2022/04/25 11:36:24;;;;;;;11.02;8.95;;;16.20;99.90;;;;;;4975470;28;20231;-78
2022/04/25 11:41:37;;;;;;;11.50;8.38;;;16.30;99.90;;;;;;4975502;28;20216;-78
2022/04/25 11:44:06;;;;;;;9.93;8.57;;;16.70;99.90;;;;;;4974681;28;20186;-78
2022/04/25 11:46:34;;;;;;;12.30;8.82;;;16.60;99.90;;;;;;4974911;28;20700;-78
2022/04/25 11:49:00;;;;;;;10.00;7.80;;;16.50;99.90;;;;;;4975016;28;20172;-80
2022/04/25 11:51:26;;;;;;;8.88;8.10;;;16.50;99.90;;;;;;4974926;28;20178;-77
2022/04/25 11:53:58;;;;;;;17.02;7.65;;;16.30;99.90;;;;;;4975021;28;20216;-81
2022/04/25 11:56:25;;;;;;;8.60;7.28;;;16.20;99.90;;;;;;4975031;28;20170;-80
2022/04/25 11:58:52;;;;;;;6.95;6.35;;;15.90;99.90;;;;;;4974863;28;20688;-78
2022/04/25 12:01:49;;;;;;;12.30;7.03;;;15.40;99.90;;;;;;4974656;28;20418;-78
2022/04/25 12:04:29;;;;;;;7.15;6.22;;;14.90;99.90;;;;;;4974810;28;20574;-77
2022/04/25 12:07:03;;;;;;;6.65;6.05;;;14.30;99.90;;;;;;4974710;28;20205;-79
2022/04/25 12:18:11;;;;;;;7.65;6.40;;;12.40;99.90;;;;;;4974619;28;20185;-77
2022/04/25 12:20:39;;;;;;;5.88;5.22;;;12.40;99.90;;;;;;4974617;28;20170;-80
2022/04/25 12:23:05;;;;;;;14.00;7.32;;;12.40;99.90;;;;;;4974460;28;20304;-78
2022/04/25 12:25:34;;;;;;;7.70;6.68;;;12.40;99.90;;;;;;4974421;28;20276;-80
2022/04/25 12:28:16;;;;;;;7.20;6.40;;;12.30;99.90;;;;;;4974603;28;20170;-81
2022/04/25 12:30:54;;;;;;;12.30;6.65;;;12.30;99.90;;;;;;4973182;28;20197;-80
2022/04/25 12:33:41;;;;;;;5.90;5.30;;;12.50;99.90;;;;;;4972582;28;20173;-78
2022/04/25 12:36:18;;;;;;;8.80;6.60;;;12.70;99.90;;;;;;4973869;28;20178;-79
2022/04/25 12:38:58;;;;;;;6.50;5.78;;;13.10;99.90;;;;;;4974564;28;20693;-79
2022/04/25 12:41:31;;;;;;;9.20;6.10;;;13.10;99.90;;;;;;4974494;28;20205;-79
2022/04/25 12:43:59;;;;;;;6.07;5.40;;;13.30;99.90;;;;;;4973946;28;20194;-79
2022/04/25 12:46:39;;;;;;;6.18;5.57;;;13.60;99.90;;;;;;4974228;28;20219;-82
2022/04/25 12:49:06;;;;;;;6.82;5.88;;;14.00;99.90;;;;;;4974838;28;20164;-84
2022/04/25 12:51:40;;;;;;;6.32;5.28;;;14.50;99.90;;;;;;4974635;28;20634;-83
2022/04/25 12:54:25;;;;;;;9.32;4.82;;;14.70;99.90;;;;;;4995307;28;20262;-81
2022/04/25 12:57:26;;;;;;;7.38;4.63;;;15.00;99.90;;;;;;4988823;28;20291;-78
2022/04/25 12:59:54;;;;;;;7.78;4.43;;;15.30;99.90;;;;;;5024672;28;20275;-78
2022/04/25 13:02:32;;;;;;;5.80;4.18;;;15.50;99.90;;;;;;5012205;28;20207;-82
2022/04/25 13:05:03;;;;;;;4.78;4.38;;;15.50;99.90;;;;;;5016485;28;20187;-79
2022/04/25 13:07:32;;;;;;;6.82;5.20;;;15.70;99.90;;;;;;5003135;28;20704;-81
2022/04/25 13:10:00;;;;;;;7.78;4.65;;;15.70;99.90;;;;;;4997261;28;20153;-81
2022/04/25 13:12:39;;;;;;;8.52;4.93;;;15.80;99.90;;;;;;4997414;28;20169;-80
2022/04/25 13:15:07;;;;;;;5.60;5.05;;;15.90;99.90;;;;;;4997246;28;20582;-81
2022/04/25 13:17:36;;;;;;;8.15;5.18;;;15.80;99.90;;;;;;4996733;28;20173;-79
2022/04/25 13:20:03;;;;;;;6.65;4.75;;;15.70;99.90;;;;;;5012108;28;20652;-77
2022/04/25 13:22:29;;;;;;;6.93;4.30;;;15.80;99.90;;;;;;4995891;28;20276;-80
2022/04/25 13:24:55;;;;;;;4.55;4.15;;;15.90;99.90;;;;;;4996846;28;20200;-85
2022/04/25 13:27:21;;;;;;;6.53;5.07;;;16.00;99.90;;;;;;4996223;28;20250;-82
2022/04/25 13:29:48;;;;;;;5.07;4.57;;;15.80;99.90;;;;;;4997317;28;20585;-76